sensor_id;sensor_type;location;lat;lon;timestamp;pressure;altitude;pressure_sealevel;temperature;humidity
72262;BME280;60173;52.112;8.648;2022-12-07T00:01:15;100517.22;;;3.53;98.91
72262;BME280;60173;52.112;8.648;2022-12-07T00:03:43;100515.63;;;3.57;99.01
72262;BME280;60173;52.112;8.648;2022-12-07T00:06:12;100514.03;;;3.56;98.70
72262;BME280;60173;52.112;8.648;2022-12-07T00:08:39;100512.53;;;3.66;98.85
72262;BME280;60173;52.112;8.648;2022-12-07T00:11:11;100507.25;;;3.76;98.22
72262;BME280;60173;52.112;8.648;2022-12-07T00:13:38;100502.06;;;3.69;98.04
72262;BME280;60173;52.112;8.648;2022-12-07T00:16:12;100502.84;;;3.65;98.40
72262;BME280;60173;52.112;8.648;2022-12-07T00:18:40;100491.13;;;3.76;98.63
72262;BME280;60173;52.112;8.648;2022-12-07T00:21:10;100490.38;;;3.80;98.35
72262;BME280;60173;52.112;8.648;2022-12-07T00:23:38;100483.56;;;3.73;98.82
72262;BME280;60173;52.112;8.648;2022-12-07T00:26:06;100495.91;;;3.69;98.94
72262;BME280;60173;52.112;8.648;2022-12-07T00:28:34;100500.06;;;3.81;99.00
72262;BME280;60173;52.112;8.648;2022-12-07T00:31:11;100501.44;;;3.84;98.81
72262;BME280;60173;52.112;8.648;2022-12-07T00:33:38;100501.25;;;3.91;98.69
72262;BME280;60173;52.112;8.648;2022-12-07T00:36:07;100496.56;;;3.81;98.87
72262;BME280;60173;52.112;8.648;2022-12-07T00:38:35;100493.88;;;3.81;98.77
72262;BME280;60173;52.112;8.648;2022-12-07T00:41:04;100493.06;;;3.80;98.90
72262;BME280;60173;52.112;8.648;2022-12-07T00:43:31;100486.31;;;3.78;98.80
72262;BME280;60173;52.112;8.648;2022-12-07T00:46:00;100479.63;;;3.80;98.94
72262;BME280;60173;52.112;8.648;2022-12-07T00:48:26;100474.25;;;3.80;98.91
72262;BME280;60173;52.112;8.648;2022-12-07T00:50:53;100475.88;;;3.81;98.86
72262;BME280;60173;52.112;8.648;2022-12-07T00:53:19;100478.97;;;3.95;98.32
72262;BME280;60173;52.112;8.648;2022-12-07T00:55:46;100475.13;;;3.86;98.35
72262;BME280;60173;52.112;8.648;2022-12-07T00:58:12;100475.69;;;3.88;98.57
72262;BME280;60173;52.112;8.648;2022-12-07T01:00:41;100475.13;;;3.86;98.52
72262;BME280;60173;52.112;8.648;2022-12-07T01:03:09;100473.88;;;3.94;98.99
72262;BME280;60173;52.112;8.648;2022-12-07T01:05:36;100478.69;;;3.92;98.45
72262;BME280;60173;52.112;8.648;2022-12-07T01:08:03;100472.00;;;3.94;98.50
72262;BME280;60173;52.112;8.648;2022-12-07T01:10:30;100472.28;;;3.98;98.15
72262;BME280;60173;52.112;8.648;2022-12-07T01:12:56;100470.25;;;3.83;98.03
72262;BME280;60173;52.112;8.648;2022-12-07T01:15:22;100473.53;;;3.85;98.21
72262;BME280;60173;52.112;8.648;2022-12-07T01:17:49;100469.50;;;3.88;98.10
72262;BME280;60173;52.112;8.648;2022-12-07T01:20:15;100479.28;;;3.72;97.98
72262;BME280;60173;52.112;8.648;2022-12-07T01:22:43;100471.06;;;3.56;97.99
72262;BME280;60173;52.112;8.648;2022-12-07T01:25:11;100473.47;;;3.58;98.26
72262;BME280;60173;52.112;8.648;2022-12-07T01:27:37;100467.81;;;3.54;98.79
72262;BME280;60173;52.112;8.648;2022-12-07T01:30:05;100477.59;;;3.44;98.67
72262;BME280;60173;52.112;8.648;2022-12-07T01:32:33;100476.41;;;3.34;98.71
72262;BME280;60173;52.112;8.648;2022-12-07T01:34:59;100479.97;;;3.40;98.50
72262;BME280;60173;52.112;8.648;2022-12-07T01:37:26;100485.28;;;3.35;98.56
72262;BME280;60173;52.112;8.648;2022-12-07T01:39:52;100480.34;;;3.27;98.61
72262;BME280;60173;52.112;8.648;2022-12-07T01:42:19;100478.22;;;3.29;98.68
72262;BME280;60173;52.112;8.648;2022-12-07T01:47:56;100478.28;;;3.12;99.12
72262;BME280;60173;52.112;8.648;2022-12-07T01:50:25;100487.78;;;3.20;98.90
72262;BME280;60173;52.112;8.648;2022-12-07T01:52:54;100484.41;;;3.07;99.28
72262;BME280;60173;52.112;8.648;2022-12-07T01:55:22;100482.09;;;3.16;99.55
72262;BME280;60173;52.112;8.648;2022-12-07T01:57:50;100477.88;;;3.03;99.49
72262;BME280;60173;52.112;8.648;2022-12-07T02:00:18;100479.53;;;3.04;99.64
72262;BME280;60173;52.112;8.648;2022-12-07T02:02:54;100479.38;;;2.94;99.78
72262;BME280;60173;52.112;8.648;2022-12-07T02:05:23;100480.19;;;2.78;99.94
72262;BME280;60173;52.112;8.648;2022-12-07T02:07:51;100479.88;;;2.91;99.96
72262;BME280;60173;52.112;8.648;2022-12-07T02:10:24;100474.56;;;2.96;100.00
72262;BME280;60173;52.112;8.648;2022-12-07T02:12:55;100474.50;;;2.91;99.56
72262;BME280;60173;52.112;8.648;2022-12-07T02:15:25;100469.81;;;2.81;99.72
72262;BME280;60173;52.112;8.648;2022-12-07T02:18:04;100470.53;;;2.77;99.79
72262;BME280;60173;52.112;8.648;2022-12-07T02:28:44;100471.28;;;2.55;100.00
72262;BME280;60173;52.112;8.648;2022-12-07T02:31:18;100471.13;;;2.62;100.00
72262;BME280;60173;52.112;8.648;2022-12-07T02:33:52;100474.19;;;2.70;100.00
72262;BME280;60173;52.112;8.648;2022-12-07T02:36:26;100467.19;;;2.86;99.76
72262;BME280;60173;52.112;8.648;2022-12-07T02:39:05;100463.69;;;2.86;99.39
72262;BME280;60173;52.112;8.648;2022-12-07T02:41:37;100456.81;;;2.73;99.65
72262;BME280;60173;52.112;8.648;2022-12-07T02:44:18;100454.63;;;2.70;99.65
72262;BME280;60173;52.112;8.648;2022-12-07T02:47:15;100456.41;;;2.64;99.70
72262;BME280;60173;52.112;8.648;2022-12-07T02:49:43;100457.78;;;2.67;99.81
72262;BME280;60173;52.112;8.648;2022-12-07T02:52:10;100455.75;;;2.74;99.78
72262;BME280;60173;52.112;8.648;2022-12-07T02:54:36;100447.88;;;2.67;99.72
72262;BME280;60173;52.112;8.648;2022-12-07T02:57:23;100453.66;;;2.59;99.96
72262;BME280;60173;52.112;8.648;2022-12-07T03:00:07;100443.41;;;2.56;99.98
72262;BME280;60173;52.112;8.648;2022-12-07T03:02:53;100444.31;;;2.62;100.00
72262;BME280;60173;52.112;8.648;2022-12-07T03:05:28;100446.19;;;2.61;100.00
72262;BME280;60173;52.112;8.648;2022-12-07T03:08:59;100453.03;;;2.52;99.97
72262;BME280;60173;52.112;8.648;2022-12-07T03:11:10;100454.94;;;2.40;100.00
72262;BME280;60173;52.112;8.648;2022-12-07T03:19:09;100446.19;;;2.44;99.96
72262;BME280;60173;52.112;8.648;2022-12-07T03:21:40;100434.56;;;2.39;100.00
72262;BME280;60173;52.112;8.648;2022-12-07T03:24:30;100438.06;;;2.22;100.00
72262;BME280;60173;52.112;8.648;2022-12-07T03:27:04;100438.94;;;2.28;100.00
72262;BME280;60173;52.112;8.648;2022-12-07T03:29:38;100439.94;;;2.22;100.00
72262;BME280;60173;52.112;8.648;2022-12-07T03:32:19;100436.34;;;2.16;100.00
72262;BME280;60173;52.112;8.648;2022-12-07T03:35:03;100433.13;;;2.14;100.00
72262;BME280;60173;52.112;8.648;2022-12-07T03:37:40;100431.72;;;2.12;100.00
72262;BME280;60173;52.112;8.648;2022-12-07T03:40:33;100430.50;;;2.19;100.00
72262;BME280;60173;52.112;8.648;2022-12-07T03:43:03;100426.44;;;2.17;100.00
72262;BME280;60173;52.112;8.648;2022-12-07T03:45:38;100430.28;;;2.21;100.00
72262;BME280;60173;52.112;8.648;2022-12-07T03:48:24;100433.66;;;2.16;100.00
72262;BME280;60173;52.112;8.648;2022-12-07T03:51:06;100434.81;;;2.20;100.00
72262;BME280;60173;52.112;8.648;2022-12-07T03:53:44;100441.31;;;2.24;100.00
72262;BME280;60173;52.112;8.648;2022-12-07T03:56:13;100437.34;;;2.27;100.00
72262;BME280;60173;52.112;8.648;2022-12-07T03:58:40;100433.53;;;2.23;100.00
72262;BME280;60173;52.112;8.648;2022-12-07T04:01:08;100440.91;;;2.16;100.00
72262;BME280;60173;52.112;8.648;2022-12-07T04:03:34;100439.91;;;2.05;100.00
72262;BME280;60173;52.112;8.648;2022-12-07T04:06:01;100440.56;;;1.95;100.00
72262;BME280;60173;52.112;8.648;2022-12-07T04:08:27;100433.81;;;1.93;100.00
72262;BME280;60173;52.112;8.648;2022-12-07T04:10:54;100429.34;;;1.98;100.00
72262;BME280;60173;52.112;8.648;2022-12-07T04:13:20;100426.59;;;1.93;100.00
72262;BME280;60173;52.112;8.648;2022-12-07T04:15:46;100429.34;;;1.98;100.00
72262;BME280;60173;52.112;8.648;2022-12-07T04:18:13;100432.44;;;2.07;100.00
72262;BME280;60173;52.112;8.648;2022-12-07T04:20:39;100435.13;;;2.07;100.00
72262;BME280;60173;52.112;8.648;2022-12-07T04:23:06;100431.72;;;1.95;100.00
72262;BME280;60173;52.112;8.648;2022-12-07T04:25:32;100437.81;;;2.07;100.00
72262;BME280;60173;52.112;8.648;2022-12-07T04:27:58;100438.63;;;2.08;99.83
72262;BME280;60173;52.112;8.648;2022-12-07T04:30:25;100441.72;;;2.16;99.91
72262;BME280;60173;52.112;8.648;2022-12-07T04:32:51;100441.88;;;2.26;99.95
72262;BME280;60173;52.112;8.648;2022-12-07T04:35:17;100446.66;;;2.24;99.86
72262;BME280;60173;52.112;8.648;2022-12-07T04:37:44;100436.34;;;2.33;99.46
72262;BME280;60173;52.112;8.648;2022-12-07T04:40:11;100437.34;;;2.27;99.53
72262;BME280;60173;52.112;8.648;2022-12-07T04:42:38;100432.88;;;2.33;99.62
72262;BME280;60173;52.112;8.648;2022-12-07T04:45:04;100435.84;;;2.19;99.46
72262;BME280;60173;52.112;8.648;2022-12-07T04:47:31;100438.63;;;2.24;99.50
72262;BME280;60173;52.112;8.648;2022-12-07T04:49:57;100432.38;;;2.36;99.41
72262;BME280;60173;52.112;8.648;2022-12-07T04:52:24;100437.44;;;2.32;99.35
72262;BME280;60173;52.112;8.648;2022-12-07T04:54:50;100431.56;;;2.35;99.16
72262;BME280;60173;52.112;8.648;2022-12-07T04:57:17;100430.59;;;2.41;99.14
72262;BME280;60173;52.112;8.648;2022-12-07T04:59:43;100437.81;;;2.41;98.91
72262;BME280;60173;52.112;8.648;2022-12-07T05:02:11;100431.16;;;2.43;99.20
72262;BME280;60173;52.112;8.648;2022-12-07T05:04:38;100435.69;;;2.43;98.87
72262;BME280;60173;52.112;8.648;2022-12-07T05:07:04;100439.28;;;2.48;99.09
72262;BME280;60173;52.112;8.648;2022-12-07T05:09:30;100436.84;;;2.64;98.94
72262;BME280;60173;52.112;8.648;2022-12-07T05:11:57;100439.19;;;2.60;98.41
72262;BME280;60173;52.112;8.648;2022-12-07T05:14:23;100443.50;;;2.61;98.56
72262;BME280;60173;52.112;8.648;2022-12-07T05:16:50;100439.25;;;2.65;98.51
72262;BME280;60173;52.112;8.648;2022-12-07T05:19:18;100446.25;;;2.66;98.03
72262;BME280;60173;52.112;8.648;2022-12-07T05:21:45;100441.84;;;2.60;97.98
72262;BME280;60173;52.112;8.648;2022-12-07T05:24:13;100439.53;;;2.64;98.04
72262;BME280;60173;52.112;8.648;2022-12-07T05:26:40;100444.69;;;2.70;97.61
72262;BME280;60173;52.112;8.648;2022-12-07T05:29:10;100436.03;;;2.63;97.46
72262;BME280;60173;52.112;8.648;2022-12-07T05:31:37;100435.53;;;2.66;97.47
72262;BME280;60173;52.112;8.648;2022-12-07T05:34:03;100425.31;;;2.63;97.22
72262;BME280;60173;52.112;8.648;2022-12-07T05:36:29;100437.66;;;2.64;97.43
72262;BME280;60173;52.112;8.648;2022-12-07T05:38:56;100433.34;;;2.63;97.54
72262;BME280;60173;52.112;8.648;2022-12-07T05:41:22;100437.38;;;2.66;97.55
72262;BME280;60173;52.112;8.648;2022-12-07T05:43:49;100425.44;;;2.74;97.13
72262;BME280;60173;52.112;8.648;2022-12-07T05:46:15;100427.50;;;2.66;96.97
72262;BME280;60173;52.112;8.648;2022-12-07T05:48:41;100431.47;;;2.64;97.35
72262;BME280;60173;52.112;8.648;2022-12-07T05:51:08;100431.31;;;2.54;97.40
72262;BME280;60173;52.112;8.648;2022-12-07T05:53:34;100424.03;;;2.49;96.97
72262;BME280;60173;52.112;8.648;2022-12-07T05:56:00;100425.06;;;2.48;97.46
72262;BME280;60173;52.112;8.648;2022-12-07T05:58:27;100428.41;;;2.55;97.33
72262;BME280;60173;52.112;8.648;2022-12-07T06:00:56;100437.16;;;2.51;96.81
72262;BME280;60173;52.112;8.648;2022-12-07T06:03:23;100433.09;;;2.48;96.88
72262;BME280;60173;52.112;8.648;2022-12-07T06:05:49;100424.03;;;2.49;96.57
72262;BME280;60173;52.112;8.648;2022-12-07T06:08:16;100423.94;;;2.44;96.96
72262;BME280;60173;52.112;8.648;2022-12-07T06:10:42;100420.09;;;2.40;97.06
72262;BME280;60173;52.112;8.648;2022-12-07T06:13:09;100420.44;;;2.26;96.98
72262;BME280;60173;52.112;8.648;2022-12-07T06:15:36;100425.41;;;2.18;97.13
72262;BME280;60173;52.112;8.648;2022-12-07T06:18:03;100421.03;;;2.12;97.40
72262;BME280;60173;52.112;8.648;2022-12-07T06:20:29;100422.22;;;2.04;97.58
72262;BME280;60173;52.112;8.648;2022-12-07T06:22:55;100422.44;;;2.02;97.66
72262;BME280;60173;52.112;8.648;2022-12-07T06:25:22;100419.84;;;2.08;98.02
72262;BME280;60173;52.112;8.648;2022-12-07T06:27:48;100420.44;;;2.10;97.97
72262;BME280;60173;52.112;8.648;2022-12-07T06:30:15;100427.75;;;2.14;98.11
72262;BME280;60173;52.112;8.648;2022-12-07T06:32:41;100425.09;;;2.14;98.04
72262;BME280;60173;52.112;8.648;2022-12-07T06:35:07;100422.06;;;2.11;97.99
72262;BME280;60173;52.112;8.648;2022-12-07T06:37:34;100425.00;;;2.09;98.12
72262;BME280;60173;52.112;8.648;2022-12-07T06:40:00;100426.28;;;2.07;98.43
72262;BME280;60173;52.112;8.648;2022-12-07T06:42:27;100423.84;;;2.05;98.30
72262;BME280;60173;52.112;8.648;2022-12-07T06:44:54;100419.78;;;2.02;98.40
72262;BME280;60173;52.112;8.648;2022-12-07T06:47:20;100423.69;;;1.95;98.17
72262;BME280;60173;52.112;8.648;2022-12-07T06:50:06;100427.75;;;1.97;98.32
72262;BME280;60173;52.112;8.648;2022-12-07T06:52:33;100435.03;;;2.02;98.47
72262;BME280;60173;52.112;8.648;2022-12-07T06:55:00;100436.41;;;2.04;98.54
72262;BME280;60173;52.112;8.648;2022-12-07T06:57:26;100431.47;;;2.13;98.28
72262;BME280;60173;52.112;8.648;2022-12-07T06:59:53;100433.31;;;1.96;98.24
72262;BME280;60173;52.112;8.648;2022-12-07T07:02:19;100435.34;;;1.89;98.19
72262;BME280;60173;52.112;8.648;2022-12-07T07:04:46;100436.31;;;1.83;98.36
72262;BME280;60173;52.112;8.648;2022-12-07T07:07:12;100439.88;;;1.71;98.19
72262;BME280;60173;52.112;8.648;2022-12-07T07:09:38;100447.63;;;1.73;98.62
72262;BME280;60173;52.112;8.648;2022-12-07T07:12:05;100440.34;;;1.68;98.39
72262;BME280;60173;52.112;8.648;2022-12-07T07:14:31;100452.66;;;1.69;98.42
72262;BME280;60173;52.112;8.648;2022-12-07T07:16:57;100445.69;;;1.68;98.55
72262;BME280;60173;52.112;8.648;2022-12-07T07:19:24;100442.59;;;1.60;98.58
72262;BME280;60173;52.112;8.648;2022-12-07T07:21:50;100443.41;;;1.60;98.64
72262;BME280;60173;52.112;8.648;2022-12-07T07:24:16;100444.53;;;1.64;98.36
72262;BME280;60173;52.112;8.648;2022-12-07T07:26:43;100448.16;;;1.58;98.76
72262;BME280;60173;52.112;8.648;2022-12-07T07:29:09;100455.72;;;1.61;98.94
72262;BME280;60173;52.112;8.648;2022-12-07T07:31:35;100453.41;;;1.53;98.81
72262;BME280;60173;52.112;8.648;2022-12-07T07:34:02;100457.63;;;1.49;98.83
72262;BME280;60173;52.112;8.648;2022-12-07T07:36:28;100459.25;;;1.50;98.84
72262;BME280;60173;52.112;8.648;2022-12-07T07:38:54;100462.41;;;1.47;99.09
72262;BME280;60173;52.112;8.648;2022-12-07T07:41:21;100460.41;;;1.54;99.03
72262;BME280;60173;52.112;8.648;2022-12-07T07:43:47;100465.03;;;1.58;98.60
72262;BME280;60173;52.112;8.648;2022-12-07T07:46:13;100459.56;;;1.65;98.94
72262;BME280;60173;52.112;8.648;2022-12-07T07:48:40;100469.31;;;1.71;98.69
72262;BME280;60173;52.112;8.648;2022-12-07T07:51:07;100472.47;;;1.68;98.36
72262;BME280;60173;52.112;8.648;2022-12-07T07:53:34;100472.00;;;1.71;98.19
72262;BME280;60173;52.112;8.648;2022-12-07T07:56:00;100471.84;;;1.78;98.18
72262;BME280;60173;52.112;8.648;2022-12-07T07:58:27;100477.16;;;1.90;97.89
72262;BME280;60173;52.112;8.648;2022-12-07T08:00:53;100472.63;;;2.07;97.35
72262;BME280;60173;52.112;8.648;2022-12-07T08:03:19;100473.69;;;2.06;96.87
72262;BME280;60173;52.112;8.648;2022-12-07T08:05:46;100473.22;;;2.09;96.80
72262;BME280;60173;52.112;8.648;2022-12-07T08:08:12;100476.22;;;2.13;96.68
72262;BME280;60173;52.112;8.648;2022-12-07T08:10:39;100465.34;;;2.19;96.08
72262;BME280;60173;52.112;8.648;2022-12-07T08:13:05;100460.56;;;2.21;95.89
72262;BME280;60173;52.112;8.648;2022-12-07T08:15:31;100466.00;;;2.26;95.86
72262;BME280;60173;52.112;8.648;2022-12-07T08:17:58;100464.72;;;2.29;95.28
72262;BME280;60173;52.112;8.648;2022-12-07T08:20:25;100465.19;;;2.43;95.30
72262;BME280;60173;52.112;8.648;2022-12-07T08:22:52;100465.94;;;2.55;95.22
72262;BME280;60173;52.112;8.648;2022-12-07T08:25:18;100464.47;;;2.64;94.72
72262;BME280;60173;52.112;8.648;2022-12-07T08:27:45;100464.28;;;2.71;94.40
72262;BME280;60173;52.112;8.648;2022-12-07T08:30:11;100460.97;;;2.81;94.15
72262;BME280;60173;52.112;8.648;2022-12-07T08:32:38;100471.25;;;2.89;93.67
72262;BME280;60173;52.112;8.648;2022-12-07T08:35:05;100472.69;;;2.97;93.34
72262;BME280;60173;52.112;8.648;2022-12-07T08:37:31;100469.28;;;3.01;92.75
72262;BME280;60173;52.112;8.648;2022-12-07T08:39:58;100464.66;;;2.97;92.87
72262;BME280;60173;52.112;8.648;2022-12-07T08:42:25;100465.78;;;3.01;92.87
72262;BME280;60173;52.112;8.648;2022-12-07T08:44:51;100469.84;;;3.03;92.44
72262;BME280;60173;52.112;8.648;2022-12-07T08:47:18;100468.28;;;3.07;92.61
72262;BME280;60173;52.112;8.648;2022-12-07T08:49:46;100472.97;;;3.17;92.10
72262;BME280;60173;52.112;8.648;2022-12-07T08:52:13;100463.88;;;3.40;92.46
72262;BME280;60173;52.112;8.648;2022-12-07T08:54:40;100461.94;;;3.57;91.87
72262;BME280;60173;52.112;8.648;2022-12-07T08:57:09;100463.28;;;3.82;91.08
72262;BME280;60173;52.112;8.648;2022-12-07T08:59:37;100457.53;;;4.00;90.19
72262;BME280;60173;52.112;8.648;2022-12-07T09:02:05;100462.91;;;4.00;89.65
72262;BME280;60173;52.112;8.648;2022-12-07T09:04:31;100467.66;;;3.88;89.46
72262;BME280;60173;52.112;8.648;2022-12-07T09:06:58;100462.50;;;3.87;89.25
72262;BME280;60173;52.112;8.648;2022-12-07T09:09:25;100467.13;;;3.91;89.44
72262;BME280;60173;52.112;8.648;2022-12-07T09:11:51;100465.59;;;4.00;88.97
72262;BME280;60173;52.112;8.648;2022-12-07T09:14:18;100478.69;;;3.92;89.38
72262;BME280;60173;52.112;8.648;2022-12-07T09:16:44;100473.59;;;3.95;89.83
72262;BME280;60173;52.112;8.648;2022-12-07T09:19:10;100471.50;;;3.97;89.15
72262;BME280;60173;52.112;8.648;2022-12-07T09:21:37;100474.69;;;3.94;89.42
72262;BME280;60173;52.112;8.648;2022-12-07T09:24:03;100475.69;;;3.88;90.10
72262;BME280;60173;52.112;8.648;2022-12-07T09:26:30;100472.31;;;3.76;89.25
72262;BME280;60173;52.112;8.648;2022-12-07T09:28:56;100469.84;;;3.69;89.33
72262;BME280;60173;52.112;8.648;2022-12-07T09:31:22;100472.16;;;3.60;89.69
72262;BME280;60173;52.112;8.648;2022-12-07T09:33:59;100476.59;;;3.50;90.58
72262;BME280;60173;52.112;8.648;2022-12-07T09:36:27;100479.63;;;3.53;91.33
72262;BME280;60173;52.112;8.648;2022-12-07T09:38:53;100483.91;;;3.54;91.14
72262;BME280;60173;52.112;8.648;2022-12-07T09:41:20;100480.66;;;3.52;91.01
72262;BME280;60173;52.112;8.648;2022-12-07T09:43:47;100468.38;;;3.56;91.31
72262;BME280;60173;52.112;8.648;2022-12-07T09:46:16;100472.47;;;3.64;90.84
72262;BME280;60173;52.112;8.648;2022-12-07T09:48:44;100471.78;;;3.74;90.74
72262;BME280;60173;52.112;8.648;2022-12-07T09:51:15;100477.88;;;3.91;90.58
72262;BME280;60173;52.112;8.648;2022-12-07T09:53:49;100480.19;;;4.10;88.92
72262;BME280;60173;52.112;8.648;2022-12-07T09:56:18;100472.88;;;4.05;88.48
72262;BME280;60173;52.112;8.648;2022-12-07T09:58:46;100472.81;;;3.95;89.42
72262;BME280;60173;52.112;8.648;2022-12-07T10:01:19;100473.66;;;4.00;88.49
72262;BME280;60173;52.112;8.648;2022-12-07T10:06:16;100470.31;;;3.88;89.36
72262;BME280;60173;52.112;8.648;2022-12-07T10:08:43;100470.69;;;3.97;90.09
72262;BME280;60173;52.112;8.648;2022-12-07T10:11:10;100470.47;;;4.03;89.17
72262;BME280;60173;52.112;8.648;2022-12-07T10:13:45;100463.16;;;4.26;89.15
72262;BME280;60173;52.112;8.648;2022-12-07T10:18:51;100454.53;;;4.24;89.18
72262;BME280;60173;52.112;8.648;2022-12-07T10:24:24;100452.41;;;4.26;88.27
72262;BME280;60173;52.112;8.648;2022-12-07T10:26:52;100454.06;;;4.32;87.42
72262;BME280;60173;52.112;8.648;2022-12-07T10:29:37;100453.88;;;4.44;87.75
72262;BME280;60173;52.112;8.648;2022-12-07T10:32:05;100448.88;;;4.58;86.12
72262;BME280;60173;52.112;8.648;2022-12-07T10:34:37;100447.81;;;4.59;85.57
72262;BME280;60173;52.112;8.648;2022-12-07T10:39:43;100450.44;;;4.48;86.81
72262;BME280;60173;52.112;8.648;2022-12-07T10:44:48;100437.16;;;4.37;85.99
72262;BME280;60173;52.112;8.648;2022-12-07T10:55:16;100437.06;;;4.26;86.34
72262;BME280;60173;52.112;8.648;2022-12-07T11:00:43;100437.38;;;4.30;86.81
72262;BME280;60173;52.112;8.648;2022-12-07T11:05:58;100423.28;;;4.18;87.37
72262;BME280;60173;52.112;8.648;2022-12-07T11:08:38;100431.91;;;4.20;86.87
72262;BME280;60173;52.112;8.648;2022-12-07T11:11:13;100423.81;;;4.15;86.57
72262;BME280;60173;52.112;8.648;2022-12-07T11:13:51;100418.81;;;4.28;86.49
72262;BME280;60173;52.112;8.648;2022-12-07T11:19:18;100421.50;;;4.28;87.13
72262;BME280;60173;52.112;8.648;2022-12-07T11:21:58;100414.41;;;4.49;86.94
72262;BME280;60173;52.112;8.648;2022-12-07T11:24:43;100416.34;;;4.59;86.52
72262;BME280;60173;52.112;8.648;2022-12-07T11:35:57;100399.28;;;4.91;84.66
72262;BME280;60173;52.112;8.648;2022-12-07T11:41:09;100398.69;;;4.79;85.79
72262;BME280;60173;52.112;8.648;2022-12-07T11:43:36;100392.56;;;4.88;85.73
72262;BME280;60173;52.112;8.648;2022-12-07T11:46:05;100392.59;;;4.93;84.22
72262;BME280;60173;52.112;8.648;2022-12-07T11:48:41;100396.88;;;4.89;83.98
72262;BME280;60173;52.112;8.648;2022-12-07T11:51:12;100390.09;;;4.82;83.57
72262;BME280;60173;52.112;8.648;2022-12-07T11:54:02;100391.41;;;4.69;83.77
72262;BME280;60173;52.112;8.648;2022-12-07T11:56:30;100383.53;;;4.57;83.44
72262;BME280;60173;52.112;8.648;2022-12-07T11:59:00;100385.50;;;4.72;84.13
72262;BME280;60173;52.112;8.648;2022-12-07T12:06:37;100377.53;;;4.97;83.66
72262;BME280;60173;52.112;8.648;2022-12-07T12:09:21;100377.09;;;5.21;82.79
72262;BME280;60173;52.112;8.648;2022-12-07T12:20:45;100375.56;;;5.61;81.28
72262;BME280;60173;52.112;8.648;2022-12-07T12:23:24;100361.06;;;5.82;78.72
72262;BME280;60173;52.112;8.648;2022-12-07T12:25:57;100365.06;;;5.59;79.65
72262;BME280;60173;52.112;8.648;2022-12-07T12:28:56;100359.13;;;5.57;80.41
72262;BME280;60173;52.112;8.648;2022-12-07T12:33:56;100354.00;;;5.61;80.64
72262;BME280;60173;52.112;8.648;2022-12-07T12:36:26;100354.03;;;5.71;79.51
72262;BME280;60173;52.112;8.648;2022-12-07T12:52:47;100339.63;;;5.04;81.88
72262;BME280;60173;52.112;8.648;2022-12-07T12:55:11;100337.69;;;4.99;82.90
72262;BME280;60173;52.112;8.648;2022-12-07T12:57:38;100345.81;;;5.15;82.47
72262;BME280;60173;52.112;8.648;2022-12-07T13:00:17;100339.09;;;5.17;81.19
72262;BME280;60173;52.112;8.648;2022-12-07T13:02:52;100337.16;;;5.03;80.83
72262;BME280;60173;52.112;8.648;2022-12-07T13:05:25;100342.84;;;5.01;81.75
72262;BME280;60173;52.112;8.648;2022-12-07T13:07:56;100342.56;;;5.03;81.38
72262;BME280;60173;52.112;8.648;2022-12-07T13:18:00;100332.97;;;5.42;79.67
72262;BME280;60173;52.112;8.648;2022-12-07T13:23:10;100324.91;;;5.58;79.86
72262;BME280;60173;52.112;8.648;2022-12-07T13:28:39;100324.41;;;5.92;79.69
72262;BME280;60173;52.112;8.648;2022-12-07T13:31:31;100320.38;;;5.99;78.79
72262;BME280;60173;52.112;8.648;2022-12-07T13:33:58;100306.06;;;6.19;78.51
72262;BME280;60173;52.112;8.648;2022-12-07T13:36:38;100308.22;;;6.17;78.72
72262;BME280;60173;52.112;8.648;2022-12-07T13:39:33;100314.16;;;5.99;78.21
72262;BME280;60173;52.112;8.648;2022-12-07T13:42:27;100310.66;;;5.83;78.60
72262;BME280;60173;52.112;8.648;2022-12-07T13:44:55;100318.47;;;5.84;79.50
72262;BME280;60173;52.112;8.648;2022-12-07T13:47:41;100306.34;;;5.72;77.84
72262;BME280;60173;52.112;8.648;2022-12-07T13:50:30;100303.38;;;5.53;79.68
72262;BME280;60173;52.112;8.648;2022-12-07T13:53:01;100308.47;;;5.39;80.12
72262;BME280;60173;52.112;8.648;2022-12-07T13:55:28;100308.69;;;5.22;80.39
72262;BME280;60173;52.112;8.648;2022-12-07T13:57:55;100306.25;;;5.10;81.06
72262;BME280;60173;52.112;8.648;2022-12-07T14:00:27;100301.38;;;5.02;81.99
72262;BME280;60173;52.112;8.648;2022-12-07T14:03:04;100304.84;;;4.92;81.82
72262;BME280;60173;52.112;8.648;2022-12-07T14:05:46;100309.44;;;5.02;82.33
72262;BME280;60173;52.112;8.648;2022-12-07T14:13:39;100296.72;;;4.77;81.62
72262;BME280;60173;52.112;8.648;2022-12-07T14:16:30;100301.44;;;4.49;83.45
72262;BME280;60173;52.112;8.648;2022-12-07T14:18:59;100297.63;;;4.40;84.32
72262;BME280;60173;52.112;8.648;2022-12-07T14:21:28;100293.88;;;4.41;84.76
72262;BME280;60173;52.112;8.648;2022-12-07T14:24:19;100291.09;;;4.26;84.72
72262;BME280;60173;52.112;8.648;2022-12-07T14:26:50;100298.88;;;4.27;84.52
72262;BME280;60173;52.112;8.648;2022-12-07T14:29:30;100296.41;;;4.16;84.39
72262;BME280;60173;52.112;8.648;2022-12-07T14:32:01;100300.13;;;4.10;84.53
72262;BME280;60173;52.112;8.648;2022-12-07T14:34:36;100302.09;;;3.87;85.23
72262;BME280;60173;52.112;8.648;2022-12-07T14:37:04;100298.69;;;3.97;85.22
72262;BME280;60173;52.112;8.648;2022-12-07T14:39:32;100299.22;;;3.94;84.48
72262;BME280;60173;52.112;8.648;2022-12-07T14:41:59;100295.75;;;3.98;85.00
72262;BME280;60173;52.112;8.648;2022-12-07T14:44:25;100294.41;;;4.01;85.10
72262;BME280;60173;52.112;8.648;2022-12-07T14:47:00;100282.78;;;3.90;85.81
72262;BME280;60173;52.112;8.648;2022-12-07T14:49:46;100285.66;;;3.78;86.65
72262;BME280;60173;52.112;8.648;2022-12-07T14:52:19;100288.38;;;3.83;86.11
72262;BME280;60173;52.112;8.648;2022-12-07T14:55:16;100288.63;;;3.77;86.34
72262;BME280;60173;52.112;8.648;2022-12-07T14:57:45;100286.84;;;3.60;87.06
72262;BME280;60173;52.112;8.648;2022-12-07T15:00:15;100287.38;;;3.57;87.54
72262;BME280;60173;52.112;8.648;2022-12-07T15:02:41;100287.41;;;3.62;87.37